sensor_id;sensor_type;location;lat;lon;timestamp;temperature;humidity
30069;DHT22;16894;49.456;10.644;2022-12-16T00:01:20;-2.40;99.90
30069;DHT22;16894;49.456;10.644;2022-12-16T00:03:52;-2.40;99.90
30069;DHT22;16894;49.456;10.644;2022-12-16T00:06:19;-2.40;99.90
30069;DHT22;16894;49.456;10.644;2022-12-16T00:08:45;-2.30;99.90
30069;DHT22;16894;49.456;10.644;2022-12-16T00:11:11;-2.40;99.90
30069;DHT22;16894;49.456;10.644;2022-12-16T00:13:38;-2.30;99.90
30069;DHT22;16894;49.456;10.644;2022-12-16T00:16:10;-2.40;99.90
30069;DHT22;16894;49.456;10.644;2022-12-16T00:18:36;-2.40;99.90
30069;DHT22;16894;49.456;10.644;2022-12-16T00:21:02;-2.40;99.90
30069;DHT22;16894;49.456;10.644;2022-12-16T00:23:28;-2.40;99.90
30069;DHT22;16894;49.456;10.644;2022-12-16T00:25:54;-2.30;99.90
30069;DHT22;16894;49.456;10.644;2022-12-16T00:28:20;-2.40;99.90
30069;DHT22;16894;49.456;10.644;2022-12-16T00:30:50;-2.30;99.90
30069;DHT22;16894;49.456;10.644;2022-12-16T00:33:17;-2.30;99.90
30069;DHT22;16894;49.456;10.644;2022-12-16T00:35:43;-2.40;99.90
30069;DHT22;16894;49.456;10.644;2022-12-16T00:38:09;-2.40;99.90
30069;DHT22;16894;49.456;10.644;2022-12-16T00:40:35;-2.40;99.90
30069;DHT22;16894;49.456;10.644;2022-12-16T00:43:00;-2.40;99.90
30069;DHT22;16894;49.456;10.644;2022-12-16T00:45:26;-2.30;99.90
30069;DHT22;16894;49.456;10.644;2022-12-16T00:47:52;-2.40;99.90
30069;DHT22;16894;49.456;10.644;2022-12-16T00:50:18;-2.40;99.90
30069;DHT22;16894;49.456;10.644;2022-12-16T00:52:45;-2.40;99.90
30069;DHT22;16894;49.456;10.644;2022-12-16T00:55:10;-2.40;99.90
30069;DHT22;16894;49.456;10.644;2022-12-16T00:57:37;-2.40;99.90
30069;DHT22;16894;49.456;10.644;2022-12-16T01:00:03;-2.50;99.90
30069;DHT22;16894;49.456;10.644;2022-12-16T01:02:30;-2.40;99.90
30069;DHT22;16894;49.456;10.644;2022-12-16T01:04:55;-2.40;99.90
30069;DHT22;16894;49.456;10.644;2022-12-16T01:07:21;-2.40;99.90
30069;DHT22;16894;49.456;10.644;2022-12-16T01:09:47;-2.40;99.90
30069;DHT22;16894;49.456;10.644;2022-12-16T01:12:12;-2.40;99.90
30069;DHT22;16894;49.456;10.644;2022-12-16T01:14:38;-2.30;99.90
30069;DHT22;16894;49.456;10.644;2022-12-16T01:17:04;-2.30;99.90
30069;DHT22;16894;49.456;10.644;2022-12-16T01:19:29;-2.40;99.90
30069;DHT22;16894;49.456;10.644;2022-12-16T01:21:55;-2.40;99.90
30069;DHT22;16894;49.456;10.644;2022-12-16T01:24:20;-2.40;99.90
30069;DHT22;16894;49.456;10.644;2022-12-16T01:26:46;-2.40;99.90
30069;DHT22;16894;49.456;10.644;2022-12-16T01:29:12;-2.30;99.90
30069;DHT22;16894;49.456;10.644;2022-12-16T01:31:37;-2.30;99.90
30069;DHT22;16894;49.456;10.644;2022-12-16T01:34:03;-2.40;99.90
30069;DHT22;16894;49.456;10.644;2022-12-16T01:36:28;-2.30;99.90
30069;DHT22;16894;49.456;10.644;2022-12-16T01:38:54;-2.30;99.90
30069;DHT22;16894;49.456;10.644;2022-12-16T01:41:20;-2.30;99.90
30069;DHT22;16894;49.456;10.644;2022-12-16T01:43:45;-2.40;99.90
30069;DHT22;16894;49.456;10.644;2022-12-16T01:48:42;-2.40;99.90
30069;DHT22;16894;49.456;10.644;2022-12-16T01:53:46;-2.30;99.90
30069;DHT22;16894;49.456;10.644;2022-12-16T01:56:14;-2.30;99.90
30069;DHT22;16894;49.456;10.644;2022-12-16T01:58:41;-2.30;99.90
30069;DHT22;16894;49.456;10.644;2022-12-16T02:01:08;-2.30;99.90
30069;DHT22;16894;49.456;10.644;2022-12-16T02:03:35;-2.30;99.90
30069;DHT22;16894;49.456;10.644;2022-12-16T02:06:03;-2.30;99.90
30069;DHT22;16894;49.456;10.644;2022-12-16T02:08:29;-2.30;99.90
30069;DHT22;16894;49.456;10.644;2022-12-16T02:11:03;-2.30;99.90
30069;DHT22;16894;49.456;10.644;2022-12-16T02:16:59;-2.30;99.90
30069;DHT22;16894;49.456;10.644;2022-12-16T02:44:18;-2.30;99.90
30069;DHT22;16894;49.456;10.644;2022-12-16T02:46:53;-2.30;99.90
30069;DHT22;16894;49.456;10.644;2022-12-16T02:51:45;-2.30;99.90
30069;DHT22;16894;49.456;10.644;2022-12-16T02:54:12;-2.30;99.90
30069;DHT22;16894;49.456;10.644;2022-12-16T03:02:18;-2.40;99.90
30069;DHT22;16894;49.456;10.644;2022-12-16T03:07:14;-2.30;99.90
30069;DHT22;16894;49.456;10.644;2022-12-16T03:09:43;-2.30;99.90
30069;DHT22;16894;49.456;10.644;2022-12-16T03:12:12;-2.30;99.90
30069;DHT22;16894;49.456;10.644;2022-12-16T03:14:42;-2.30;99.90
30069;DHT22;16894;49.456;10.644;2022-12-16T03:17:08;-2.30;99.90
30069;DHT22;16894;49.456;10.644;2022-12-16T03:19:36;-2.30;99.90
30069;DHT22;16894;49.456;10.644;2022-12-16T03:22:11;-2.30;99.90
30069;DHT22;16894;49.456;10.644;2022-12-16T03:24:37;-2.30;99.90
30069;DHT22;16894;49.456;10.644;2022-12-16T03:27:28;-2.30;99.90
30069;DHT22;16894;49.456;10.644;2022-12-16T03:30:34;-2.30;99.90
30069;DHT22;16894;49.456;10.644;2022-12-16T03:33:07;-2.30;99.90
30069;DHT22;16894;49.456;10.644;2022-12-16T03:35:42;-2.30;99.90
30069;DHT22;16894;49.456;10.644;2022-12-16T03:38:10;-2.30;99.90
30069;DHT22;16894;49.456;10.644;2022-12-16T03:40:37;-2.30;99.90
30069;DHT22;16894;49.456;10.644;2022-12-16T03:43:06;-2.30;99.90
30069;DHT22;16894;49.456;10.644;2022-12-16T03:45:37;-2.30;99.90
30069;DHT22;16894;49.456;10.644;2022-12-16T03:48:06;-2.30;99.90
30069;DHT22;16894;49.456;10.644;2022-12-16T03:50:33;-2.30;99.90
30069;DHT22;16894;49.456;10.644;2022-12-16T03:53:00;-2.30;99.90
30069;DHT22;16894;49.456;10.644;2022-12-16T03:55:26;-2.30;99.90
30069;DHT22;16894;49.456;10.644;2022-12-16T03:57:52;-2.30;99.90
30069;DHT22;16894;49.456;10.644;2022-12-16T04:00:18;-2.30;99.90
30069;DHT22;16894;49.456;10.644;2022-12-16T04:02:44;-2.30;99.90
30069;DHT22;16894;49.456;10.644;2022-12-16T04:05:10;-2.30;99.90
30069;DHT22;16894;49.456;10.644;2022-12-16T04:07:35;-2.30;99.90
30069;DHT22;16894;49.456;10.644;2022-12-16T04:10:01;-2.30;99.90
30069;DHT22;16894;49.456;10.644;2022-12-16T04:12:26;-2.30;99.90
30069;DHT22;16894;49.456;10.644;2022-12-16T04:15:24;-2.30;99.90
30069;DHT22;16894;49.456;10.644;2022-12-16T04:18:16;-2.30;99.90
30069;DHT22;16894;49.456;10.644;2022-12-16T04:21:02;-2.30;99.90
30069;DHT22;16894;49.456;10.644;2022-12-16T04:23:55;-2.30;99.90
30069;DHT22;16894;49.456;10.644;2022-12-16T04:26:40;-2.30;99.90
30069;DHT22;16894;49.456;10.644;2022-12-16T04:29:25;-2.30;99.90
30069;DHT22;16894;49.456;10.644;2022-12-16T04:31:51;-2.30;99.90
30069;DHT22;16894;49.456;10.644;2022-12-16T04:34:16;-2.30;99.90
30069;DHT22;16894;49.456;10.644;2022-12-16T04:36:59;-2.30;99.90
30069;DHT22;16894;49.456;10.644;2022-12-16T04:39:44;-2.30;99.90
30069;DHT22;16894;49.456;10.644;2022-12-16T04:42:29;-2.30;99.90
30069;DHT22;16894;49.456;10.644;2022-12-16T04:45:14;-2.20;99.90
30069;DHT22;16894;49.456;10.644;2022-12-16T04:47:58;-2.20;99.90
30069;DHT22;16894;49.456;10.644;2022-12-16T04:50:44;-2.20;99.90
30069;DHT22;16894;49.456;10.644;2022-12-16T04:53:27;-2.20;99.90
30069;DHT22;16894;49.456;10.644;2022-12-16T04:56:12;-2.30;99.90
30069;DHT22;16894;49.456;10.644;2022-12-16T04:58:57;-2.20;99.90
30069;DHT22;16894;49.456;10.644;2022-12-16T05:01:41;-2.30;99.90
30069;DHT22;16894;49.456;10.644;2022-12-16T05:04:25;-2.30;99.90
30069;DHT22;16894;49.456;10.644;2022-12-16T05:07:10;-2.30;99.90
30069;DHT22;16894;49.456;10.644;2022-12-16T05:09:54;-2.30;99.90
30069;DHT22;16894;49.456;10.644;2022-12-16T05:12:38;-2.30;99.90
30069;DHT22;16894;49.456;10.644;2022-12-16T05:15:23;-2.30;99.90
30069;DHT22;16894;49.456;10.644;2022-12-16T05:18:12;-2.30;99.90
30069;DHT22;16894;49.456;10.644;2022-12-16T05:20:58;-2.30;99.90
30069;DHT22;16894;49.456;10.644;2022-12-16T05:23:43;-2.40;99.90
30069;DHT22;16894;49.456;10.644;2022-12-16T05:26:27;-2.30;99.90
30069;DHT22;16894;49.456;10.644;2022-12-16T05:29:11;-2.30;99.90
30069;DHT22;16894;49.456;10.644;2022-12-16T05:31:56;-2.30;99.90
30069;DHT22;16894;49.456;10.644;2022-12-16T05:34:40;-2.20;99.90
30069;DHT22;16894;49.456;10.644;2022-12-16T05:37:25;-2.30;99.90
30069;DHT22;16894;49.456;10.644;2022-12-16T05:40:09;-2.30;99.90
30069;DHT22;16894;49.456;10.644;2022-12-16T05:42:54;-2.30;99.90
30069;DHT22;16894;49.456;10.644;2022-12-16T05:45:39;-2.40;99.90
30069;DHT22;16894;49.456;10.644;2022-12-16T05:48:31;-2.30;99.90
30069;DHT22;16894;49.456;10.644;2022-12-16T05:51:15;-2.40;99.90
30069;DHT22;16894;49.456;10.644;2022-12-16T05:54:00;-2.40;99.90
30069;DHT22;16894;49.456;10.644;2022-12-16T05:56:44;-2.40;99.90
30069;DHT22;16894;49.456;10.644;2022-12-16T05:59:32;-2.40;99.90
30069;DHT22;16894;49.456;10.644;2022-12-16T06:02:17;-2.40;99.90
30069;DHT22;16894;49.456;10.644;2022-12-16T06:05:01;-2.50;99.90
30069;DHT22;16894;49.456;10.644;2022-12-16T06:07:51;-2.50;99.90
30069;DHT22;16894;49.456;10.644;2022-12-16T06:10:36;-2.50;99.90
30069;DHT22;16894;49.456;10.644;2022-12-16T06:13:20;-2.40;99.90
30069;DHT22;16894;49.456;10.644;2022-12-16T06:16:05;-2.40;99.90
30069;DHT22;16894;49.456;10.644;2022-12-16T06:18:49;-2.50;99.90
30069;DHT22;16894;49.456;10.644;2022-12-16T06:21:33;-2.50;99.90
30069;DHT22;16894;49.456;10.644;2022-12-16T06:24:17;-2.40;99.90
30069;DHT22;16894;49.456;10.644;2022-12-16T06:27:02;-2.30;99.90
30069;DHT22;16894;49.456;10.644;2022-12-16T06:29:46;-2.30;99.90
30069;DHT22;16894;49.456;10.644;2022-12-16T06:32:30;-2.30;99.90
30069;DHT22;16894;49.456;10.644;2022-12-16T06:35:15;-2.30;99.90
30069;DHT22;16894;49.456;10.644;2022-12-16T06:37:59;-2.30;99.90
30069;DHT22;16894;49.456;10.644;2022-12-16T06:40:44;-2.30;99.90
30069;DHT22;16894;49.456;10.644;2022-12-16T06:43:28;-2.20;99.90
30069;DHT22;16894;49.456;10.644;2022-12-16T06:46:32;-2.20;99.90
30069;DHT22;16894;49.456;10.644;2022-12-16T06:49:16;-2.20;99.90
30069;DHT22;16894;49.456;10.644;2022-12-16T06:52:00;-2.10;99.90
30069;DHT22;16894;49.456;10.644;2022-12-16T06:54:44;-2.10;99.90
30069;DHT22;16894;49.456;10.644;2022-12-16T06:57:29;-2.10;99.90
30069;DHT22;16894;49.456;10.644;2022-12-16T07:00:13;-2.10;99.90
30069;DHT22;16894;49.456;10.644;2022-12-16T07:02:57;-2.10;99.90
30069;DHT22;16894;49.456;10.644;2022-12-16T07:05:41;-2.00;99.90
30069;DHT22;16894;49.456;10.644;2022-12-16T07:08:42;-2.00;99.90
30069;DHT22;16894;49.456;10.644;2022-12-16T07:11:26;-2.00;99.90
30069;DHT22;16894;49.456;10.644;2022-12-16T07:14:11;-2.00;99.90
30069;DHT22;16894;49.456;10.644;2022-12-16T07:16:55;-2.00;99.90
30069;DHT22;16894;49.456;10.644;2022-12-16T07:19:39;-2.00;99.90
30069;DHT22;16894;49.456;10.644;2022-12-16T07:22:23;-2.00;99.90
30069;DHT22;16894;49.456;10.644;2022-12-16T07:25:08;-2.00;99.90
30069;DHT22;16894;49.456;10.644;2022-12-16T07:27:52;-2.00;99.90
30069;DHT22;16894;49.456;10.644;2022-12-16T07:30:37;-2.00;99.90
30069;DHT22;16894;49.456;10.644;2022-12-16T07:33:21;-1.90;99.90
30069;DHT22;16894;49.456;10.644;2022-12-16T07:36:06;-1.90;99.90
30069;DHT22;16894;49.456;10.644;2022-12-16T07:38:50;-1.90;99.90
30069;DHT22;16894;49.456;10.644;2022-12-16T07:41:34;-1.90;99.90
30069;DHT22;16894;49.456;10.644;2022-12-16T07:44:18;-1.90;99.90
30069;DHT22;16894;49.456;10.644;2022-12-16T07:47:03;-1.90;99.90
30069;DHT22;16894;49.456;10.644;2022-12-16T07:49:47;-1.90;99.90
30069;DHT22;16894;49.456;10.644;2022-12-16T07:52:32;-1.90;99.90
30069;DHT22;16894;49.456;10.644;2022-12-16T07:55:16;-1.90;99.90
30069;DHT22;16894;49.456;10.644;2022-12-16T07:58:00;-1.80;99.90
30069;DHT22;16894;49.456;10.644;2022-12-16T08:00:44;-1.80;99.90
30069;DHT22;16894;49.456;10.644;2022-12-16T08:03:29;-1.80;99.90
30069;DHT22;16894;49.456;10.644;2022-12-16T08:06:13;-1.70;99.90
30069;DHT22;16894;49.456;10.644;2022-12-16T08:08:58;-1.70;99.90
30069;DHT22;16894;49.456;10.644;2022-12-16T08:11:42;-1.80;99.90
30069;DHT22;16894;49.456;10.644;2022-12-16T08:14:26;-1.80;99.90
30069;DHT22;16894;49.456;10.644;2022-12-16T08:17:11;-1.80;99.90
30069;DHT22;16894;49.456;10.644;2022-12-16T08:19:55;-1.80;99.90
30069;DHT22;16894;49.456;10.644;2022-12-16T08:22:39;-1.80;99.90
30069;DHT22;16894;49.456;10.644;2022-12-16T08:25:24;-1.80;99.90
30069;DHT22;16894;49.456;10.644;2022-12-16T08:28:08;-1.70;99.90
30069;DHT22;16894;49.456;10.644;2022-12-16T08:30:53;-1.70;99.90
30069;DHT22;16894;49.456;10.644;2022-12-16T08:33:37;-1.60;99.90
30069;DHT22;16894;49.456;10.644;2022-12-16T08:36:22;-1.60;99.90
30069;DHT22;16894;49.456;10.644;2022-12-16T08:39:06;-1.60;99.90
30069;DHT22;16894;49.456;10.644;2022-12-16T08:41:50;-1.60;99.90
30069;DHT22;16894;49.456;10.644;2022-12-16T08:44:34;-1.60;99.90
30069;DHT22;16894;49.456;10.644;2022-12-16T08:47:18;-1.50;99.90
30069;DHT22;16894;49.456;10.644;2022-12-16T08:50:03;-1.50;99.90
30069;DHT22;16894;49.456;10.644;2022-12-16T08:52:48;-1.40;99.90
30069;DHT22;16894;49.456;10.644;2022-12-16T08:55:32;-1.30;99.90
30069;DHT22;16894;49.456;10.644;2022-12-16T08:58:16;-1.30;99.90
30069;DHT22;16894;49.456;10.644;2022-12-16T09:01:01;-1.20;99.90
30069;DHT22;16894;49.456;10.644;2022-12-16T09:03:45;-1.20;99.90
30069;DHT22;16894;49.456;10.644;2022-12-16T09:06:30;-1.20;99.90
30069;DHT22;16894;49.456;10.644;2022-12-16T09:09:14;-1.10;99.90
30069;DHT22;16894;49.456;10.644;2022-12-16T09:11:58;-1.00;99.90
30069;DHT22;16894;49.456;10.644;2022-12-16T09:14:43;-1.10;99.90
30069;DHT22;16894;49.456;10.644;2022-12-16T09:17:27;-1.10;99.90
30069;DHT22;16894;49.456;10.644;2022-12-16T09:20:11;-1.00;99.90
30069;DHT22;16894;49.456;10.644;2022-12-16T09:22:56;-0.90;99.90
30069;DHT22;16894;49.456;10.644;2022-12-16T09:25:43;-0.90;99.90
30069;DHT22;16894;49.456;10.644;2022-12-16T09:28:28;-0.70;99.90
30069;DHT22;16894;49.456;10.644;2022-12-16T09:31:13;-0.70;99.90
30069;DHT22;16894;49.456;10.644;2022-12-16T09:33:57;-0.70;99.90
30069;DHT22;16894;49.456;10.644;2022-12-16T09:36:42;-0.60;99.90
30069;DHT22;16894;49.456;10.644;2022-12-16T09:39:26;-0.50;99.90
30069;DHT22;16894;49.456;10.644;2022-12-16T09:48:58;-0.60;99.90
30069;DHT22;16894;49.456;10.644;2022-12-16T09:51:45;-0.50;99.90
30069;DHT22;16894;49.456;10.644;2022-12-16T09:54:33;-0.40;99.90
30069;DHT22;16894;49.456;10.644;2022-12-16T09:57:18;-0.40;99.90
30069;DHT22;16894;49.456;10.644;2022-12-16T10:00:06;-0.30;99.90
30069;DHT22;16894;49.456;10.644;2022-12-16T10:02:50;-0.40;99.90
30069;DHT22;16894;49.456;10.644;2022-12-16T10:08:40;-0.50;99.90
30069;DHT22;16894;49.456;10.644;2022-12-16T10:15:19;-0.60;99.90
30069;DHT22;16894;49.456;10.644;2022-12-16T10:21:19;-0.40;99.90
30069;DHT22;16894;49.456;10.644;2022-12-16T10:27:27;-0.30;99.90
30069;DHT22;16894;49.456;10.644;2022-12-16T10:30:14;-0.30;99.90
30069;DHT22;16894;49.456;10.644;2022-12-16T10:32:59;-0.30;99.90
30069;DHT22;16894;49.456;10.644;2022-12-16T10:35:51;-0.30;99.90
30069;DHT22;16894;49.456;10.644;2022-12-16T10:41:32;-0.30;99.90
30069;DHT22;16894;49.456;10.644;2022-12-16T10:44:30;-0.30;99.90
30069;DHT22;16894;49.456;10.644;2022-12-16T10:47:17;-0.30;99.90
30069;DHT22;16894;49.456;10.644;2022-12-16T10:50:01;-0.30;99.90
30069;DHT22;16894;49.456;10.644;2022-12-16T10:53:26;-0.30;99.90
30069;DHT22;16894;49.456;10.644;2022-12-16T10:56:52;-0.20;99.90
30069;DHT22;16894;49.456;10.644;2022-12-16T10:59:39;-0.10;99.90
30069;DHT22;16894;49.456;10.644;2022-12-16T11:02:26;0.00;99.90
30069;DHT22;16894;49.456;10.644;2022-12-16T11:05:33;0.00;99.90
30069;DHT22;16894;49.456;10.644;2022-12-16T11:08:29;0.10;99.90
30069;DHT22;16894;49.456;10.644;2022-12-16T11:11:22;0.20;99.90
30069;DHT22;16894;49.456;10.644;2022-12-16T11:14:19;0.10;99.90
30069;DHT22;16894;49.456;10.644;2022-12-16T11:17:25;0.10;99.90
30069;DHT22;16894;49.456;10.644;2022-12-16T11:20:16;0.00;99.90
30069;DHT22;16894;49.456;10.644;2022-12-16T11:23:20;-0.10;99.90
30069;DHT22;16894;49.456;10.644;2022-12-16T11:26:17;-0.10;99.90
30069;DHT22;16894;49.456;10.644;2022-12-16T11:29:11;-0.10;99.90
30069;DHT22;16894;49.456;10.644;2022-12-16T11:32:21;0.10;99.90
30069;DHT22;16894;49.456;10.644;2022-12-16T11:35:17;0.10;99.90
30069;DHT22;16894;49.456;10.644;2022-12-16T11:38:03;0.10;99.90
30069;DHT22;16894;49.456;10.644;2022-12-16T11:40:50;0.10;99.90
30069;DHT22;16894;49.456;10.644;2022-12-16T11:43:37;0.10;99.90
30069;DHT22;16894;49.456;10.644;2022-12-16T11:46:27;0.00;99.90
30069;DHT22;16894;49.456;10.644;2022-12-16T11:49:31;0.00;99.90
30069;DHT22;16894;49.456;10.644;2022-12-16T11:52:18;0.00;99.90
30069;DHT22;16894;49.456;10.644;2022-12-16T12:04:07;-0.10;99.90
30069;DHT22;16894;49.456;10.644;2022-12-16T12:07:37;-0.20;99.90
30069;DHT22;16894;49.456;10.644;2022-12-16T12:16:47;-0.10;99.90
30069;DHT22;16894;49.456;10.644;2022-12-16T12:20:01;-0.30;99.90
30069;DHT22;16894;49.456;10.644;2022-12-16T12:22:47;-0.30;99.90
30069;DHT22;16894;49.456;10.644;2022-12-16T12:35:32;-0.40;99.90
30069;DHT22;16894;49.456;10.644;2022-12-16T12:38:06;-0.30;99.90
30069;DHT22;16894;49.456;10.644;2022-12-16T12:44:02;-0.30;99.90
30069;DHT22;16894;49.456;10.644;2022-12-16T12:46:59;-0.30;99.90
30069;DHT22;16894;49.456;10.644;2022-12-16T12:49:51;-0.40;99.90
30069;DHT22;16894;49.456;10.644;2022-12-16T12:55:48;-0.40;99.90
30069;DHT22;16894;49.456;10.644;2022-12-16T12:58:37;-0.40;99.90
30069;DHT22;16894;49.456;10.644;2022-12-16T13:01:25;-0.30;99.90
30069;DHT22;16894;49.456;10.644;2022-12-16T13:04:13;-0.30;99.90
30069;DHT22;16894;49.456;10.644;2022-12-16T13:06:59;-0.20;99.90
30069;DHT22;16894;49.456;10.644;2022-12-16T13:09:44;-0.30;99.90
30069;DHT22;16894;49.456;10.644;2022-12-16T13:12:31;-0.20;99.90
30069;DHT22;16894;49.456;10.644;2022-12-16T13:15:37;-0.30;99.90
30069;DHT22;16894;49.456;10.644;2022-12-16T13:18:26;-0.20;99.90
30069;DHT22;16894;49.456;10.644;2022-12-16T13:27:20;-0.40;99.90
30069;DHT22;16894;49.456;10.644;2022-12-16T13:33:20;-0.50;99.90
30069;DHT22;16894;49.456;10.644;2022-12-16T13:36:03;-0.50;99.90
30069;DHT22;16894;49.456;10.644;2022-12-16T13:38:49;-0.50;99.90
30069;DHT22;16894;49.456;10.644;2022-12-16T13:48:25;-0.40;99.90
30069;DHT22;16894;49.456;10.644;2022-12-16T13:50:43;-0.40;99.90
30069;DHT22;16894;49.456;10.644;2022-12-16T13:53:41;-0.50;99.90
30069;DHT22;16894;49.456;10.644;2022-12-16T13:56:33;-0.50;99.90
30069;DHT22;16894;49.456;10.644;2022-12-16T13:59:21;-0.50;99.90
30069;DHT22;16894;49.456;10.644;2022-12-16T14:02:29;-0.50;99.90
30069;DHT22;16894;49.456;10.644;2022-12-16T14:05:22;-0.50;99.90
30069;DHT22;16894;49.456;10.644;2022-12-16T14:08:17;-0.60;99.90
30069;DHT22;16894;49.456;10.644;2022-12-16T14:11:04;-0.60;99.90
30069;DHT22;16894;49.456;10.644;2022-12-16T14:14:13;-0.60;99.90
30069;DHT22;16894;49.456;10.644;2022-12-16T14:17:03;-0.60;99.90
30069;DHT22;16894;49.456;10.644;2022-12-16T14:25:59;-0.60;99.90
30069;DHT22;16894;49.456;10.644;2022-12-16T14:28:46;-0.70;99.90
30069;DHT22;16894;49.456;10.644;2022-12-16T14:31:42;-0.70;99.90
30069;DHT22;16894;49.456;10.644;2022-12-16T14:34:30;-0.80;99.90
30069;DHT22;16894;49.456;10.644;2022-12-16T14:37:17;-0.80;99.90
30069;DHT22;16894;49.456;10.644;2022-12-16T14:40:03;-0.90;99.90
30069;DHT22;16894;49.456;10.644;2022-12-16T14:42:52;-0.90;99.90
30069;DHT22;16894;49.456;10.644;2022-12-16T14:45:47;-0.90;99.90
30069;DHT22;16894;49.456;10.644;2022-12-16T14:48:34;-0.90;99.90
30069;DHT22;16894;49.456;10.644;2022-12-16T14:51:22;-0.90;99.90
30069;DHT22;16894;49.456;10.644;2022-12-16T14:57:07;-1.00;99.90
30069;DHT22;16894;49.456;10.644;2022-12-16T15:00:01;-1.10;99.90
30069;DHT22;16894;49.456;10.644;2022-12-16T15:02:47;-1.00;99.90
30069;DHT22;16894;49.456;10.644;2022-12-16T15:05:35;-1.10;99.90
30069;DHT22;16894;49.456;10.644;2022-12-16T15:08:21;-1.10;99.90
30069;DHT22;16894;49.456;10.644;2022-12-16T15:11:07;-1.20;99.90
30069;DHT22;16894;49.456;10.644;2022-12-16T15:13:56;-1.20;99.90
30069;DHT22;16894;49.456;10.644;2022-12-16T15:16:42;-1.30;99.90
30069;DHT22;16894;49.456;10.644;2022-12-16T15:19:26;-1.30;99.90
30069;DHT22;16894;49.456;10.644;2022-12-16T15:22:14;-1.30;99.90
30069;DHT22;16894;49.456;10.644;2022-12-16T15:24:59;-1.30;99.90
30069;DHT22;16894;49.456;10.644;2022-12-16T15:27:53;-1.30;99.90
30069;DHT22;16894;49.456;10.644;2022-12-16T15:30:40;-1.40;99.90
30069;DHT22;16894;49.456;10.644;2022-12-16T15:33:33;-1.40;99.90
30069;DHT22;16894;49.456;10.644;2022-12-16T15:36:21;-1.40;99.90
30069;DHT22;16894;49.456;10.644;2022-12-16T15:42:04;-1.50;99.90
30069;DHT22;16894;49.456;10.644;2022-12-16T15:44:50;-1.50;99.90
30069;DHT22;16894;49.456;10.644;2022-12-16T15:47:38;-1.60;99.90
30069;DHT22;16894;49.456;10.644;2022-12-16T15:50:27;-1.70;99.90
30069;DHT22;16894;49.456;10.644;2022-12-16T15:53:30;-1.70;99.90
30069;DHT22;16894;49.456;10.644;2022-12-16T15:56:32;-1.80;99.90
30069;DHT22;16894;49.456;10.644;2022-12-16T15:59:31;-1.80;99.90
30069;DHT22;16894;49.456;10.644;2022-12-16T16:02:24;-1.90;99.90
30069;DHT22;16894;49.456;10.644;2022-12-16T16:05:17;-1.90;99.90
30069;DHT22;16894;49.456;10.644;2022-12-16T16:08:02;-2.00;99.90
30069;DHT22;16894;49.456;10.644;2022-12-16T16:10:47;-2.10;99.90
30069;DHT22;16894;49.456;10.644;2022-12-16T16:13:31;-2.10;99.90
30069;DHT22;16894;49.456;10.644;2022-12-16T16:16:15;-2.10;99.90
30069;DHT22;16894;49.456;10.644;2022-12-16T16:19:00;-2.20;99.90
30069;DHT22;16894;49.456;10.644;2022-12-16T16:21:44;-2.30;99.90
30069;DHT22;16894;49.456;10.644;2022-12-16T16:24:29;-2.20;99.90
30069;DHT22;16894;49.456;10.644;2022-12-16T16:27:14;-2.30;99.90
30069;DHT22;16894;49.456;10.644;2022-12-16T16:29:59;-2.20;99.90
30069;DHT22;16894;49.456;10.644;2022-12-16T16:32:44;-2.20;99.90
30069;DHT22;16894;49.456;10.644;2022-12-16T16:35:32;-2.30;99.90
30069;DHT22;16894;49.456;10.644;2022-12-16T16:38:17;-2.30;99.90
30069;DHT22;16894;49.456;10.644;2022-12-16T16:41:01;-2.30;99.90
30069;DHT22;16894;49.456;10.644;2022-12-16T16:43:45;-2.30;99.90
30069;DHT22;16894;49.456;10.644;2022-12-16T16:46:40;-2.30;99.90
30069;DHT22;16894;49.456;10.644;2022-12-16T16:52:18;-2.20;99.90
30069;DHT22;16894;49.456;10.644;2022-12-16T16:55:04;-2.10;99.90
30069;DHT22;16894;49.456;10.644;2022-12-16T16:57:48;-2.20;99.90
30069;DHT22;16894;49.456;10.644;2022-12-16T17:00:33;-2.10;99.90
30069;DHT22;16894;49.456;10.644;2022-12-16T17:03:18;-2.10;99.90
30069;DHT22;16894;49.456;10.644;2022-12-16T17:06:03;-2.10;99.90
30069;DHT22;16894;49.456;10.644;2022-12-16T17:08:47;-2.10;99.90
30069;DHT22;16894;49.456;10.644;2022-12-16T17:11:48;-2.10;99.90
30069;DHT22;16894;49.456;10.644;2022-12-16T17:14:33;-2.10;99.90
30069;DHT22;16894;49.456;10.644;2022-12-16T17:17:17;-2.10;99.90
30069;DHT22;16894;49.456;10.644;2022-12-16T17:20:01;-2.10;99.90
30069;DHT22;16894;49.456;10.644;2022-12-16T17:22:45;-2.20;99.90
30069;DHT22;16894;49.456;10.644;2022-12-16T17:25:29;-2.20;99.90
30069;DHT22;16894;49.456;10.644;2022-12-16T17:28:14;-2.20;99.90
30069;DHT22;16894;49.456;10.644;2022-12-16T17:30:58;-2.30;99.90
30069;DHT22;16894;49.456;10.644;2022-12-16T17:33:42;-2.30;99.90
30069;DHT22;16894;49.456;10.644;2022-12-16T17:36:27;-2.30;99.90
30069;DHT22;16894;49.456;10.644;2022-12-16T17:39:11;-2.40;99.90
30069;DHT22;16894;49.456;10.644;2022-12-16T17:41:56;-2.40;99.90
30069;DHT22;16894;49.456;10.644;2022-12-16T17:44:40;-2.50;99.90
30069;DHT22;16894;49.456;10.644;2022-12-16T17:47:24;-2.60;99.90
30069;DHT22;16894;49.456;10.644;2022-12-16T17:50:09;-2.70;99.90
30069;DHT22;16894;49.456;10.644;2022-12-16T17:52:55;-2.80;99.90
30069;DHT22;16894;49.456;10.644;2022-12-16T17:55:40;-2.90;99.90
30069;DHT22;16894;49.456;10.644;2022-12-16T17:58:33;-3.10;99.90
30069;DHT22;16894;49.456;10.644;2022-12-16T18:01:17;-3.20;99.90
30069;DHT22;16894;49.456;10.644;2022-12-16T18:04:02;-3.30;99.90
30069;DHT22;16894;49.456;10.644;2022-12-16T18:06:46;-3.40;99.90
30069;DHT22;16894;49.456;10.644;2022-12-16T18:09:30;-3.50;99.90
30069;DHT22;16894;49.456;10.644;2022-12-16T18:12:15;-3.60;99.90
30069;DHT22;16894;49.456;10.644;2022-12-16T18:14:59;-3.70;99.90
30069;DHT22;16894;49.456;10.644;2022-12-16T18:17:43;-3.80;99.90
30069;DHT22;16894;49.456;10.644;2022-12-16T18:20:31;-3.90;99.90
30069;DHT22;16894;49.456;10.644;2022-12-16T18:23:15;-4.00;99.90
30069;DHT22;16894;49.456;10.644;2022-12-16T18:26:02;-4.10;99.90
30069;DHT22;16894;49.456;10.644;2022-12-16T18:28:47;-4.20;99.90
30069;DHT22;16894;49.456;10.644;2022-12-16T18:31:32;-4.40;99.90
30069;DHT22;16894;49.456;10.644;2022-12-16T18:34:16;-4.50;99.90
30069;DHT22;16894;49.456;10.644;2022-12-16T18:37:01;-4.60;99.90
30069;DHT22;16894;49.456;10.644;2022-12-16T18:39:45;-4.70;99.90
30069;DHT22;16894;49.456;10.644;2022-12-16T18:42:29;-4.70;99.90
30069;DHT22;16894;49.456;10.644;2022-12-16T18:45:14;-4.80;99.90
30069;DHT22;16894;49.456;10.644;2022-12-16T18:47:58;-4.80;99.90
30069;DHT22;16894;49.456;10.644;2022-12-16T18:50:42;-4.90;99.90
30069;DHT22;16894;49.456;10.644;2022-12-16T18:53:26;-5.00;99.90
30069;DHT22;16894;49.456;10.644;2022-12-16T18:56:11;-5.00;99.90
30069;DHT22;16894;49.456;10.644;2022-12-16T18:58:55;-5.10;99.90
30069;DHT22;16894;49.456;10.644;2022-12-16T19:01:40;-5.20;99.90
30069;DHT22;16894;49.456;10.644;2022-12-16T19:04:24;-5.40;99.90